createdAt,value
2023-02-11T00:00:32.894Z,1.81
2023-02-11T00:02:59.264Z,1.78
2023-02-11T00:05:25.653Z,1.79
2023-02-11T00:07:52.303Z,1.81
2023-02-11T00:10:18.686Z,1.82
2023-02-11T00:12:45.101Z,1.82
2023-02-11T00:15:11.661Z,1.84
2023-02-11T00:17:37.999Z,1.88
2023-02-11T00:20:07.174Z,1.96
2023-02-11T00:22:34.582Z,1.98
2023-02-11T00:25:00.955Z,2.08
2023-02-11T00:27:27.354Z,2.20
2023-02-11T00:29:53.722Z,2.09
2023-02-11T00:32:20.079Z,2.18
2023-02-11T00:34:46.538Z,2.14
2023-02-11T00:37:13.630Z,2.23
2023-02-11T00:39:39.980Z,2.19
2023-02-11T00:42:06.398Z,2.22
2023-02-11T00:44:32.758Z,2.23
2023-02-11T00:46:59.105Z,2.30
2023-02-11T00:49:25.522Z,2.28
2023-02-11T00:51:52.051Z,2.37
2023-02-11T00:54:18.432Z,2.38
2023-02-11T00:56:44.848Z,2.40
2023-02-11T00:59:11.211Z,2.41
2023-02-11T01:01:37.681Z,2.50
2023-02-11T01:04:04.175Z,2.51
2023-02-11T01:06:30.737Z,2.46
2023-02-11T01:08:57.079Z,2.45
2023-02-11T01:11:23.462Z,2.50
2023-02-11T01:13:50.294Z,2.54
2023-02-11T01:16:18.517Z,2.53
2023-02-11T01:18:44.944Z,2.50
2023-02-11T01:21:11.929Z,2.59
2023-02-11T01:23:38.350Z,2.59
2023-02-11T01:26:05.722Z,2.45
2023-02-11T01:28:32.916Z,2.53
2023-02-11T01:31:01.317Z,2.51
2023-02-11T01:33:28.030Z,2.50
2023-02-11T01:35:54.406Z,2.63
2023-02-11T01:38:25.961Z,2.62
2023-02-11T01:40:57.995Z,2.66
2023-02-11T01:43:25.582Z,2.63
2023-02-11T01:46:12.651Z,2.66
2023-02-11T01:48:43.823Z,2.61
2023-02-11T01:51:20.583Z,2.76
2023-02-11T01:54:06.693Z,2.78
2023-02-11T01:56:55.708Z,2.72
2023-02-11T01:59:32.060Z,2.77
2023-02-11T02:02:02.401Z,2.84
2023-02-11T02:04:35.833Z,2.95
2023-02-11T02:07:08.646Z,2.94
2023-02-11T02:09:41.896Z,2.97
2023-02-11T02:12:08.274Z,2.98
2023-02-11T02:14:38.538Z,2.94
2023-02-11T02:17:04.905Z,3.00
2023-02-11T02:20:09.141Z,2.98
2023-02-11T02:22:58.090Z,3.10
2023-02-11T02:26:14.710Z,3.05
2023-02-11T02:29:18.082Z,3.09
2023-02-11T02:32:16.619Z,3.08
2023-02-11T02:34:53.964Z,3.08
2023-02-11T02:37:47.372Z,3.06
2023-02-11T02:40:21.829Z,3.10
2023-02-11T02:42:49.206Z,3.22
2023-02-11T02:45:16.617Z,3.33
2023-02-11T02:47:44.017Z,3.23
2023-02-11T02:50:13.524Z,3.24
2023-02-11T02:53:18.927Z,3.32
2023-02-11T02:56:00.268Z,3.40
2023-02-11T02:58:54.436Z,3.36
2023-02-11T03:01:56.071Z,3.44
2023-02-11T03:04:38.403Z,3.40
2023-02-11T03:07:29.150Z,3.45
2023-02-11T03:10:02.673Z,3.50
2023-02-11T03:12:32.436Z,3.55
2023-02-11T03:14:59.455Z,3.58
2023-02-11T03:17:27.907Z,3.56
2023-02-11T03:19:55.135Z,3.61
2023-02-11T03:22:34.927Z,3.54
2023-02-11T03:25:02.704Z,3.59
2023-02-11T03:27:38.838Z,3.51
2023-02-11T03:30:30.499Z,3.61
2023-02-11T03:33:29.322Z,3.59
2023-02-11T03:36:01.582Z,3.65
2023-02-11T03:38:37.909Z,3.67
2023-02-11T03:41:07.906Z,3.62
2023-02-11T03:43:38.655Z,3.62
2023-02-11T03:46:06.209Z,3.64
2023-02-11T03:48:39.012Z,3.62
2023-02-11T03:51:07.949Z,3.70
2023-02-11T03:53:34.824Z,3.73
2023-02-11T03:56:04.968Z,3.65
2023-02-11T03:58:31.396Z,3.71
2023-02-11T04:00:57.910Z,3.73
2023-02-11T04:03:24.384Z,3.76
2023-02-11T04:05:51.027Z,3.80
2023-02-11T04:08:17.495Z,3.78
2023-02-11T04:10:45.176Z,3.79
2023-02-11T04:13:11.652Z,3.78
2023-02-11T04:15:38.029Z,3.73
2023-02-11T04:18:04.483Z,3.77
2023-02-11T04:20:30.948Z,3.86
2023-02-11T04:22:57.288Z,3.78
2023-02-11T04:25:24.291Z,3.78
2023-02-11T04:27:50.662Z,3.83
2023-02-11T04:30:17.040Z,3.82
2023-02-11T04:32:43.494Z,3.79
2023-02-11T04:35:09.913Z,3.85
2023-02-11T04:37:36.302Z,3.82
2023-02-11T04:40:02.939Z,3.86
2023-02-11T04:42:29.354Z,3.81
2023-02-11T04:44:55.700Z,3.77
2023-02-11T04:47:22.107Z,3.76
2023-02-11T04:49:48.492Z,3.79
2023-02-11T04:52:16.201Z,3.79
2023-02-11T04:54:42.595Z,3.71
2023-02-11T04:57:08.948Z,3.70
2023-02-11T04:59:35.329Z,3.71
2023-02-11T05:02:01.694Z,3.69
2023-02-11T05:04:28.107Z,3.60
2023-02-11T05:06:55.637Z,3.44
2023-02-11T05:09:23.476Z,3.37
2023-02-11T05:11:49.837Z,3.35
2023-02-11T05:14:16.204Z,3.35
2023-02-11T05:16:42.569Z,3.32
2023-02-11T05:19:08.925Z,3.27
2023-02-11T05:21:35.372Z,3.27
2023-02-11T05:24:01.753Z,3.28
2023-02-11T05:26:28.131Z,3.24
2023-02-11T05:28:54.501Z,3.28
2023-02-11T05:31:20.955Z,3.28
2023-02-11T05:33:47.430Z,3.30
2023-02-11T05:36:14.335Z,3.27
2023-02-11T05:38:42.499Z,3.23
2023-02-11T05:41:09.233Z,3.26
2023-02-11T05:43:36.505Z,3.16
2023-02-11T05:46:06.133Z,3.17
2023-02-11T05:48:32.805Z,3.19
2023-02-11T05:50:59.560Z,3.18
2023-02-11T05:53:26.009Z,3.09
2023-02-11T05:55:52.688Z,3.17
2023-02-11T05:58:19.203Z,3.16
2023-02-11T06:00:45.623Z,3.12
2023-02-11T06:03:12.018Z,3.17
2023-02-11T06:05:38.466Z,3.19
2023-02-11T06:08:05.043Z,3.14
2023-02-11T06:10:31.478Z,3.16
2023-02-11T06:12:57.804Z,3.17
2023-02-11T06:15:24.155Z,3.16
2023-02-11T06:17:50.869Z,3.21
2023-02-11T06:20:17.418Z,3.20
2023-02-11T06:22:43.922Z,3.23
2023-02-11T06:25:11.224Z,3.23
2023-02-11T06:27:38.142Z,3.25
2023-02-11T06:30:06.120Z,3.28
2023-02-11T06:32:43.912Z,3.34
2023-02-11T06:35:12.241Z,3.29
2023-02-11T06:37:39.790Z,3.46
2023-02-11T06:40:06.778Z,3.33
2023-02-11T06:42:33.131Z,3.38
2023-02-11T06:44:59.515Z,3.42
2023-02-11T06:47:25.918Z,3.47
2023-02-11T06:49:52.283Z,3.49
2023-02-11T06:52:18.649Z,3.51
2023-02-11T06:54:46.079Z,3.45
2023-02-11T06:57:12.435Z,3.41
2023-02-11T06:59:38.778Z,3.53
2023-02-11T07:02:05.263Z,3.48
2023-02-11T07:04:31.658Z,3.42
2023-02-11T07:06:58.023Z,3.43
2023-02-11T07:09:24.377Z,3.37
2023-02-11T07:11:50.713Z,3.31
2023-02-11T07:14:17.326Z,3.32
2023-02-11T07:16:43.684Z,3.29
2023-02-11T07:19:10.385Z,3.26
2023-02-11T07:21:36.720Z,3.22
2023-02-11T07:24:08.881Z,3.21
2023-02-11T07:26:37.051Z,3.26
2023-02-11T07:29:03.525Z,3.16
2023-02-11T07:31:31.181Z,3.24
2023-02-11T07:34:00.257Z,3.24
2023-02-11T07:36:27.962Z,3.31
2023-02-11T07:38:54.381Z,3.29
2023-02-11T07:41:22.988Z,3.32
2023-02-11T07:43:49.622Z,3.32
2023-02-11T07:46:35.658Z,3.33
2023-02-11T07:49:02.090Z,3.28
2023-02-11T07:51:30.320Z,3.28
2023-02-11T07:53:59.436Z,3.33
2023-02-11T07:56:26.255Z,3.34
2023-02-11T07:58:52.807Z,3.36
2023-02-11T08:01:24.902Z,3.33
2023-02-11T08:03:52.254Z,3.40
2023-02-11T08:06:20.967Z,3.45
2023-02-11T08:08:47.955Z,3.44
2023-02-11T08:11:17.419Z,3.45
2023-02-11T08:13:44.671Z,3.54
2023-02-11T08:16:19.935Z,3.56
2023-02-11T08:18:46.740Z,3.56
2023-02-11T08:21:13.071Z,3.60
2023-02-11T08:23:40.819Z,3.61
2023-02-11T08:26:11.017Z,3.64
2023-02-11T08:28:39.175Z,3.69
2023-02-11T08:31:07.636Z,3.72
2023-02-11T08:33:34.696Z,3.73
2023-02-11T08:36:01.773Z,3.70
2023-02-11T08:38:28.129Z,3.68
2023-02-11T08:40:54.485Z,3.64
2023-02-11T08:43:20.840Z,3.67
2023-02-11T08:45:47.264Z,3.63
2023-02-11T08:48:13.636Z,3.72
2023-02-11T08:50:39.996Z,3.80
2023-02-11T08:53:06.351Z,3.75
2023-02-11T08:55:32.694Z,3.85
2023-02-11T08:57:59.039Z,3.88
2023-02-11T09:00:25.777Z,3.84
2023-02-11T09:02:52.242Z,3.84
2023-02-11T09:05:18.597Z,3.92
2023-02-11T09:07:44.999Z,3.89
2023-02-11T09:10:11.356Z,3.99
2023-02-11T09:12:37.711Z,3.97
2023-02-11T09:15:04.364Z,4.03
2023-02-11T09:17:30.710Z,3.96
2023-02-11T09:19:57.076Z,4.00
2023-02-11T09:22:23.449Z,4.01
2023-02-11T09:24:49.924Z,4.04
2023-02-11T09:27:16.270Z,4.09
2023-02-11T09:29:42.625Z,4.08
2023-02-11T09:32:10.011Z,4.05
2023-02-11T09:34:36.695Z,4.09
2023-02-11T09:37:03.144Z,4.04
2023-02-11T09:39:29.843Z,4.04
2023-02-11T09:42:20.776Z,4.04
2023-02-11T09:44:47.597Z,4.01
2023-02-11T09:47:31.962Z,4.13
2023-02-11T09:50:13.649Z,4.06
2023-02-11T09:53:02.778Z,4.09
2023-02-11T09:55:42.477Z,4.15
2023-02-11T09:58:21.150Z,4.13
2023-02-11T10:01:10.681Z,4.10
2023-02-11T10:03:43.376Z,4.11
2023-02-11T10:06:24.465Z,4.13
2023-02-11T10:09:01.536Z,4.23
2023-02-11T10:11:39.284Z,4.20
2023-02-11T10:14:33.959Z,4.29
2023-02-11T10:17:21.538Z,4.33
2023-02-11T10:20:16.948Z,4.31
2023-02-11T10:23:19.249Z,4.40
2023-02-11T10:25:50.673Z,4.44
2023-02-11T10:28:20.211Z,4.44
2023-02-11T10:31:15.793Z,4.39
2023-02-11T10:33:52.321Z,4.45
2023-02-11T10:36:19.702Z,4.44
2023-02-11T10:38:46.076Z,4.50
2023-02-11T10:41:25.024Z,4.59
2023-02-11T10:43:52.166Z,4.57
2023-02-11T10:46:24.043Z,4.68
2023-02-11T10:48:53.632Z,4.66
2023-02-11T10:51:34.206Z,4.73
2023-02-11T10:54:03.496Z,4.71
2023-02-11T10:56:32.620Z,4.71
2023-02-11T10:59:01.700Z,4.73
2023-02-11T11:01:40.748Z,4.76
2023-02-11T11:04:40.211Z,4.78
2023-02-11T11:07:22.741Z,4.79
2023-02-11T11:09:55.750Z,4.82
2023-02-11T11:12:32.956Z,4.84
2023-02-11T11:15:02.458Z,4.87
2023-02-11T11:17:29.177Z,4.82
2023-02-11T11:20:15.884Z,4.87
2023-02-11T11:22:43.167Z,4.89
2023-02-11T11:25:29.246Z,4.94
2023-02-11T11:27:59.153Z,5.00
2023-02-11T11:30:32.976Z,4.91
2023-02-11T11:33:00.821Z,4.93
2023-02-11T11:35:29.855Z,4.94
2023-02-11T11:38:02.345Z,4.97
2023-02-11T11:40:31.401Z,4.99
2023-02-11T11:43:23.255Z,5.07
2023-02-11T11:45:56.449Z,5.05
2023-02-11T11:48:28.328Z,5.01
2023-02-11T11:51:02.163Z,5.04
2023-02-11T11:53:41.204Z,5.10
2023-02-11T11:56:28.675Z,5.11
2023-02-11T11:58:55.039Z,5.11
2023-02-11T12:01:58.914Z,5.13
2023-02-11T12:05:15.355Z,5.13
2023-02-11T12:08:05.574Z,5.15
2023-02-11T12:10:44.057Z,5.12
2023-02-11T12:13:39.387Z,5.17
2023-02-11T12:16:28.384Z,5.13
2023-02-11T12:19:13.595Z,5.15
2023-02-11T12:21:58.283Z,5.11
2023-02-11T12:24:45.090Z,5.12
2023-02-11T12:27:43.872Z,5.10
2023-02-11T12:30:25.035Z,5.11
2023-02-11T12:33:39.925Z,5.09
2023-02-11T12:36:32.438Z,5.07
2023-02-11T12:39:16.719Z,5.05
2023-02-11T12:42:38.030Z,5.00
2023-02-11T12:45:14.002Z,5.02
2023-02-11T12:48:04.876Z,5.00
2023-02-11T12:50:46.227Z,4.97
2023-02-11T12:53:37.506Z,4.99
2023-02-11T12:56:18.208Z,5.00
2023-02-11T12:58:47.531Z,5.02
2023-02-11T13:01:23.529Z,5.04
2023-02-11T13:04:13.502Z,4.99
2023-02-11T13:06:51.880Z,4.95
2023-02-11T13:09:34.696Z,5.04
2023-02-11T13:12:24.267Z,4.98
2023-02-11T13:14:54.401Z,4.94
2023-02-11T13:17:29.922Z,4.97
2023-02-11T13:20:08.018Z,5.05
2023-02-11T13:22:44.030Z,5.06
2023-02-11T13:25:26.380Z,5.02
2023-02-11T13:28:25.628Z,5.06
2023-02-11T13:31:02.150Z,5.05
2023-02-11T13:33:35.308Z,5.11
2023-02-11T13:36:04.394Z,5.08
2023-02-11T13:38:32.431Z,5.10
2023-02-11T13:41:24.650Z,5.19
2023-02-11T13:44:04.082Z,5.22
2023-02-11T13:46:54.100Z,5.23
2023-02-11T13:49:24.573Z,5.26
2023-02-11T13:51:52.388Z,5.31
2023-02-11T13:54:39.595Z,5.20
2023-02-11T13:57:21.002Z,5.20
2023-02-11T13:59:51.680Z,5.23
2023-02-11T14:02:44.257Z,5.19
2023-02-11T14:09:01.811Z,5.23
2023-02-11T14:11:34.057Z,5.22
2023-02-11T14:14:18.783Z,5.14
2023-02-11T14:17:11.210Z,5.17
2023-02-11T14:19:40.804Z,5.16
2023-02-11T14:22:40.250Z,5.17
2023-02-11T14:25:20.112Z,5.25
2023-02-11T14:27:54.455Z,5.22
2023-02-11T14:30:30.534Z,5.26
2023-02-11T14:33:14.162Z,5.21
2023-02-11T14:36:07.001Z,5.25
2023-02-11T14:38:51.446Z,5.24
2023-02-11T14:41:24.508Z,5.34
2023-02-11T14:43:57.763Z,5.31
2023-02-11T14:46:27.830Z,5.30
2023-02-11T14:48:58.178Z,5.28
2023-02-11T14:51:28.114Z,5.30
2023-02-11T14:53:59.208Z,5.30
2023-02-11T14:56:31.232Z,5.31
2023-02-11T14:58:58.318Z,5.33
2023-02-11T15:01:33.854Z,5.35
2023-02-11T15:04:02.875Z,5.34
2023-02-11T15:06:36.724Z,5.33
2023-02-11T15:09:16.591Z,5.34
2023-02-11T15:11:46.520Z,5.30
2023-02-11T15:14:28.381Z,5.32
2023-02-11T15:16:58.292Z,5.34
2023-02-11T15:19:38.929Z,5.34
2023-02-11T15:22:10.582Z,5.42
2023-02-11T15:24:39.251Z,5.34
2023-02-11T15:27:08.602Z,5.39
2023-02-11T15:29:41.227Z,5.42
2023-02-11T15:32:17.686Z,5.43
2023-02-11T15:34:45.970Z,5.42
2023-02-11T15:37:24.807Z,5.46
2023-02-11T15:39:52.449Z,5.43
2023-02-11T15:42:27.689Z,5.44
2023-02-11T15:45:13.670Z,5.42
2023-02-11T15:47:53.001Z,5.40
2023-02-11T15:50:24.433Z,5.37
2023-02-11T15:52:52.418Z,5.36
2023-02-11T15:55:20.471Z,5.34
2023-02-11T15:57:54.772Z,5.28
2023-02-11T16:00:24.657Z,5.20
2023-02-11T16:02:52.381Z,5.24
2023-02-11T16:05:28.201Z,5.22
2023-02-11T16:07:55.673Z,5.15
2023-02-11T16:10:40.008Z,5.21
2023-02-11T16:13:06.310Z,5.18
2023-02-11T16:15:38.144Z,5.13
2023-02-11T16:18:14.088Z,5.12
2023-02-11T16:20:40.875Z,5.08
2023-02-11T16:23:07.837Z,5.01
2023-02-11T16:25:37.610Z,5.00
2023-02-11T16:28:05.607Z,4.97
2023-02-11T16:30:36.406Z,5.03
2023-02-11T16:33:04.156Z,4.96
2023-02-11T16:35:30.630Z,4.91
2023-02-11T16:37:57.380Z,4.93
2023-02-11T16:40:24.024Z,4.91
2023-02-11T16:42:52.357Z,4.86
2023-02-11T16:45:18.924Z,4.81
2023-02-11T16:47:46.129Z,4.76
2023-02-11T16:50:22.504Z,4.75
2023-02-11T16:52:49.179Z,4.74
2023-02-11T16:55:15.665Z,4.70
2023-02-11T16:57:42.005Z,4.64
2023-02-11T17:00:08.932Z,4.57
2023-02-11T17:02:36.965Z,4.52
2023-02-11T17:05:08.555Z,4.53
2023-02-11T17:07:35.290Z,4.48
2023-02-11T17:10:02.037Z,4.47
2023-02-11T17:12:28.390Z,4.44
2023-02-11T17:14:54.750Z,4.43
2023-02-11T17:17:23.864Z,4.43
2023-02-11T17:19:51.114Z,4.50
2023-02-11T17:22:18.412Z,4.49
2023-02-11T17:24:44.751Z,4.56
2023-02-11T17:27:11.762Z,4.63
2023-02-11T17:29:38.140Z,4.60
2023-02-11T17:32:04.619Z,4.67
2023-02-11T17:34:32.264Z,4.67
2023-02-11T17:37:00.073Z,4.69
2023-02-11T17:39:27.506Z,4.71
2023-02-11T17:41:53.881Z,4.82
2023-02-11T17:44:20.454Z,4.79
2023-02-11T17:46:46.834Z,4.83
2023-02-11T17:49:13.211Z,4.81
2023-02-11T17:51:40.246Z,4.84
2023-02-11T17:54:10.807Z,4.82
2023-02-11T17:56:37.653Z,4.85
2023-02-11T17:59:05.340Z,4.80
2023-02-11T18:01:33.370Z,4.86
2023-02-11T18:04:00.777Z,4.82
2023-02-11T18:06:28.967Z,4.87
2023-02-11T18:08:58.009Z,4.88
2023-02-11T18:11:25.246Z,4.83
2023-02-11T18:13:54.468Z,4.86
2023-02-11T18:16:22.357Z,4.82
2023-02-11T18:18:49.778Z,4.86
2023-02-11T18:21:20.756Z,4.82
2023-02-11T18:23:48.037Z,4.79
2023-02-11T18:26:16.140Z,4.86
2023-02-11T18:28:45.561Z,4.89
2023-02-11T18:31:13.714Z,4.84
2023-02-11T18:33:41.425Z,4.82
2023-02-11T18:36:09.751Z,4.83
2023-02-11T18:38:36.569Z,4.82
2023-02-11T18:41:04.041Z,4.83
2023-02-11T18:43:31.652Z,4.81
2023-02-11T18:45:58.401Z,4.79
2023-02-11T18:48:26.996Z,4.82
2023-02-11T18:50:54.470Z,4.88
2023-02-11T18:53:21.248Z,4.82
2023-02-11T18:55:47.811Z,4.83
2023-02-11T18:58:15.349Z,4.81
2023-02-11T19:00:44.484Z,4.85
2023-02-11T19:03:11.125Z,4.85
2023-02-11T19:05:46.510Z,4.95
2023-02-11T19:08:13.661Z,4.93
2023-02-11T19:10:42.397Z,4.91
2023-02-11T19:13:10.148Z,4.85
2023-02-11T19:15:41.422Z,4.87
2023-02-11T19:18:07.801Z,4.81
2023-02-11T19:20:34.163Z,4.82
2023-02-11T19:23:00.832Z,4.77
2023-02-11T19:25:27.473Z,4.71
2023-02-11T19:27:53.843Z,4.87
2023-02-11T19:30:20.252Z,4.70
2023-02-11T19:32:46.579Z,4.62
2023-02-11T19:35:12.941Z,4.68
2023-02-11T19:37:39.291Z,4.73
2023-02-11T19:40:06.383Z,4.68
2023-02-11T19:42:32.725Z,4.73
2023-02-11T19:44:59.120Z,4.70
2023-02-11T19:47:27.609Z,4.85
2023-02-11T19:49:54.395Z,4.87
2023-02-11T19:52:20.837Z,4.78
2023-02-11T19:54:47.218Z,4.75
2023-02-11T19:57:13.571Z,4.70
2023-02-11T19:59:40.008Z,4.73
2023-02-11T20:02:06.603Z,4.70
2023-02-11T20:04:33.270Z,4.70
2023-02-11T20:07:00.908Z,4.71
2023-02-11T20:09:28.941Z,4.71
2023-02-11T20:11:55.309Z,4.85
2023-02-11T20:14:21.660Z,4.76
2023-02-11T20:16:49.932Z,4.82
2023-02-11T20:19:19.195Z,4.74
2023-02-11T20:21:47.921Z,4.75
2023-02-11T20:24:18.042Z,4.69
2023-02-11T20:26:46.750Z,4.78
2023-02-11T20:29:13.127Z,4.71
2023-02-11T20:31:39.567Z,4.75
2023-02-11T20:34:05.970Z,4.68
2023-02-11T20:36:35.590Z,4.64
2023-02-11T20:39:02.996Z,4.66
2023-02-11T20:41:34.142Z,4.65
2023-02-11T20:44:04.390Z,4.69
2023-02-11T20:46:32.866Z,4.74
2023-02-11T20:49:00.430Z,4.68
2023-02-11T20:51:29.730Z,4.75
2023-02-11T20:53:56.721Z,4.78
2023-02-11T20:56:29.019Z,4.92
2023-02-11T20:58:57.576Z,4.90
2023-02-11T21:01:27.216Z,4.92
2023-02-11T21:04:00.804Z,5.02
2023-02-11T21:06:30.918Z,4.98
2023-02-11T21:08:57.544Z,5.02
2023-02-11T21:11:24.157Z,5.13
2023-02-11T21:13:51.041Z,5.12
2023-02-11T21:16:22.876Z,5.10
2023-02-11T21:18:50.489Z,5.00
2023-02-11T21:21:17.298Z,5.04
2023-02-11T21:23:43.843Z,5.07
2023-02-11T21:26:10.458Z,5.02
2023-02-11T21:28:40.522Z,4.97
2023-02-11T21:31:07.642Z,4.95
2023-02-11T21:33:34.625Z,4.98
2023-02-11T21:36:03.524Z,5.06
2023-02-11T21:38:30.411Z,5.00
2023-02-11T21:41:03.079Z,5.13
2023-02-11T21:43:29.841Z,5.11
2023-02-11T21:45:56.437Z,5.16
2023-02-11T21:48:23.827Z,5.13
2023-02-11T21:50:50.524Z,5.17
2023-02-11T21:53:16.912Z,5.20
2023-02-11T21:55:43.619Z,5.17
2023-02-11T21:58:11.049Z,5.12
2023-02-11T22:00:37.516Z,5.15
2023-02-11T22:03:03.943Z,5.10
2023-02-11T22:05:30.392Z,5.11
2023-02-11T22:07:56.799Z,5.08
2023-02-11T22:10:23.687Z,5.04
2023-02-11T22:12:50.047Z,4.99
2023-02-11T22:15:16.485Z,5.02
2023-02-11T22:17:42.855Z,5.04
2023-02-11T22:20:10.162Z,5.04
2023-02-11T22:22:36.536Z,5.06
2023-02-11T22:25:04.000Z,5.06
2023-02-11T22:27:30.712Z,5.17
2023-02-11T22:29:57.068Z,5.09
2023-02-11T22:32:23.455Z,5.11
2023-02-11T22:34:52.180Z,5.15
2023-02-11T22:37:19.667Z,5.17
2023-02-11T22:39:46.031Z,5.18
2023-02-11T22:42:12.404Z,5.16
2023-02-11T22:44:38.744Z,5.15
2023-02-11T22:47:05.100Z,5.12
2023-02-11T22:49:33.122Z,5.17
2023-02-11T22:51:59.954Z,5.16
2023-02-11T22:54:26.395Z,5.17
2023-02-11T22:56:53.337Z,5.21
2023-02-11T22:59:20.691Z,5.20
2023-02-11T23:01:48.788Z,5.23
2023-02-11T23:04:17.076Z,5.27
2023-02-11T23:06:43.891Z,5.23
2023-02-11T23:09:12.369Z,5.23
2023-02-11T23:11:40.468Z,5.23
2023-02-11T23:14:08.618Z,5.23
2023-02-11T23:16:35.413Z,5.21
2023-02-11T23:19:06.171Z,5.20
2023-02-11T23:21:35.706Z,5.23
2023-02-11T23:24:05.976Z,5.22
2023-02-11T23:26:32.457Z,5.24
2023-02-11T23:28:59.456Z,5.22
2023-02-11T23:31:34.633Z,5.24
2023-02-11T23:34:01.612Z,5.32
2023-02-11T23:36:28.488Z,5.30
2023-02-11T23:38:55.247Z,5.33
2023-02-11T23:41:21.686Z,5.33
2023-02-11T23:43:53.269Z,5.31
2023-02-11T23:46:22.099Z,5.27
2023-02-11T23:48:49.310Z,5.30
2023-02-11T23:51:16.099Z,5.32
2023-02-11T23:53:42.584Z,5.42
2023-02-11T23:56:11.128Z,5.33
2023-02-11T23:58:37.513Z,5.32
